createdAt,value
2019-05-28T00:03:30.577Z,100795.77
2019-05-28T00:08:33.002Z,100799.66
2019-05-28T00:13:34.888Z,100794.83
2019-05-28T00:18:39.084Z,100786.98
2019-05-28T00:23:40.963Z,100783.63
2019-05-28T00:28:42.935Z,100791.33
2019-05-28T00:33:44.909Z,100799.72
2019-05-28T00:38:46.625Z,100794.84
2019-05-28T00:43:53.292Z,100793.48
2019-05-28T00:48:55.144Z,100791.03
2019-05-28T00:53:57.102Z,100783.83
2019-05-28T00:58:59.397Z,100783.48
2019-05-28T01:04:01.397Z,100773.34
2019-05-28T01:09:05.376Z,100771.69
2019-05-28T01:14:07.210Z,100762.09
2019-05-28T01:19:09.001Z,100759.75
2019-05-28T01:24:11.256Z,100764.83
2019-05-28T01:29:12.947Z,100760.13
2019-05-28T01:34:14.971Z,100759.60
2019-05-28T01:39:16.782Z,100757.91
2019-05-28T01:44:19.071Z,100760.22
2019-05-28T01:49:20.764Z,100752.75
2019-05-28T01:54:23.484Z,100751.56
2019-05-28T01:59:25.284Z,100755.05
2019-05-28T02:04:27.066Z,100758.41
2019-05-28T02:09:28.860Z,100758.91
2019-05-28T02:14:34.299Z,100755.27
2019-05-28T02:19:38.752Z,100752.78
2019-05-28T02:24:40.883Z,100742.41
2019-05-28T02:29:42.802Z,100744.59
2019-05-28T02:34:44.669Z,100745.09
2019-05-28T02:39:46.479Z,100747.89
2019-05-28T02:44:53.133Z,100745.40
2019-05-28T02:49:57.796Z,100745.09
2019-05-28T02:54:59.985Z,100746.27
2019-05-28T03:00:03.076Z,100745.77
2019-05-28T03:05:05.521Z,100742.59
2019-05-28T03:10:07.307Z,100739.51
2019-05-28T03:15:09.529Z,100739.73
2019-05-28T03:20:11.437Z,100741.09
2019-05-28T03:25:13.755Z,100741.09
2019-05-28T03:30:15.549Z,100742.09
2019-05-28T03:35:19.071Z,100749.10
2019-05-28T03:40:34.161Z,100738.39
2019-05-28T03:45:36.121Z,100742.45
2019-05-28T03:50:37.924Z,100743.30
2019-05-28T03:55:39.776Z,100742.14
2019-05-28T04:00:41.583Z,100741.97
2019-05-28T04:05:43.341Z,100727.28
2019-05-28T04:10:45.040Z,100733.41
2019-05-28T04:15:46.758Z,100748.39
2019-05-28T04:20:50.757Z,100753.59
2019-05-28T04:25:52.448Z,100752.41
2019-05-28T04:30:54.169Z,100758.22
2019-05-28T04:35:56.263Z,100764.77
2019-05-28T04:40:57.960Z,100765.11
2019-05-28T04:46:00.047Z,100769.32
2019-05-28T04:51:01.876Z,100771.81
2019-05-28T04:56:03.861Z,100774.27
2019-05-28T05:01:08.242Z,100776.83
2019-05-28T05:06:10.264Z,100764.80
2019-05-28T05:11:12.064Z,100759.32
2019-05-28T05:16:13.859Z,100768.84
2019-05-28T05:21:15.671Z,100776.27
2019-05-28T05:26:19.923Z,100781.60
2019-05-28T05:31:21.657Z,100774.59
2019-05-28T05:36:23.676Z,100784.44
2019-05-28T05:41:25.490Z,100787.80
2019-05-28T05:46:28.989Z,100789.33
2019-05-28T05:51:30.798Z,100800.36
2019-05-28T05:56:33.972Z,100802.20
2019-05-28T06:01:35.697Z,100801.00
2019-05-28T06:06:37.762Z,100802.97
2019-05-28T06:11:39.579Z,100808.69
2019-05-28T06:16:45.448Z,100817.69
2019-05-28T06:21:49.122Z,100819.75
2019-05-28T06:26:53.919Z,100827.70
2019-05-28T06:31:57.020Z,100829.75
2019-05-28T06:36:59.149Z,100831.98
2019-05-28T06:42:00.932Z,100841.72
2019-05-28T06:47:05.406Z,100849.23
2019-05-28T06:52:07.089Z,100861.66
2019-05-28T06:57:22.286Z,100849.20
2019-05-28T07:02:12.631Z,100856.12
2019-05-28T07:07:14.769Z,100848.46
2019-05-28T07:12:18.147Z,100854.44
2019-05-28T07:17:22.382Z,100862.52
2019-05-28T07:22:24.419Z,100868.23
2019-05-28T07:27:28.312Z,100857.19
2019-05-28T07:32:32.724Z,101334.23
2019-05-28T07:37:34.533Z,100861.02
2019-05-28T07:42:37.560Z,100909.82
2019-05-28T07:47:39.249Z,100925.78
2019-05-28T07:52:41.124Z,100889.77
2019-05-28T07:57:42.838Z,100903.19
2019-05-28T08:02:46.999Z,95985.33
2019-05-28T08:07:48.846Z,98642.38
2019-05-28T08:12:50.737Z,99449.28
2019-05-28T08:17:52.487Z,99604.06
2019-05-28T08:22:56.729Z,99640.36
2019-05-28T08:28:16.401Z,99753.47
2019-05-28T08:33:02.532Z,99637.52
2019-05-28T08:38:07.408Z,99532.16
2019-05-28T08:43:09.349Z,99820.14
2019-05-28T08:48:12.668Z,99681.02
2019-05-28T08:53:14.719Z,99506.30
2019-05-28T08:58:16.829Z,99740.69
2019-05-28T09:03:18.645Z,99797.56
2019-05-28T09:08:37.924Z,99304.88
2019-05-28T09:13:25.283Z,100123.11
2019-05-28T09:18:27.180Z,99052.39
2019-05-28T09:23:29.104Z,98716.50
2019-05-28T09:28:31.550Z,98655.64
2019-05-28T09:33:33.697Z,98655.64
2019-05-28T09:38:40.187Z,98250.49
2019-05-28T09:43:42.347Z,98185.38
2019-05-28T09:48:44.230Z,97681.09
2019-05-28T09:53:46.197Z,97600.05
2019-05-28T09:58:48.018Z,97694.20
2019-05-28T10:03:49.843Z,97810.25
2019-05-28T10:08:51.631Z,97649.32
2019-05-28T10:13:53.338Z,97975.38
2019-05-28T10:18:57.645Z,98051.48
2019-05-28T10:24:02.080Z,98048.59
2019-05-28T10:29:07.492Z,98483.95
2019-05-28T10:34:09.439Z,98857.56
2019-05-28T10:39:11.230Z,99542.97
2019-05-28T10:44:13.053Z,99192.70
2019-05-28T10:49:14.888Z,99574.61
2019-05-28T10:54:16.731Z,100097.33
2019-05-28T10:59:18.535Z,100466.56
2019-05-28T11:04:20.330Z,100632.92
2019-05-28T11:09:22.140Z,100700.29
2019-05-28T11:14:23.978Z,100806.17
2019-05-28T11:19:25.775Z,100861.07
2019-05-28T11:24:27.655Z,100953.59
2019-05-28T11:29:29.383Z,101046.81
2019-05-28T11:34:33.592Z,101180.32
2019-05-28T11:39:35.419Z,101309.27
2019-05-28T11:44:37.474Z,101583.97
2019-05-28T11:49:39.282Z,101536.30
2019-05-28T11:54:41.103Z,101483.23
2019-05-28T11:59:42.880Z,101432.10
2019-05-28T12:04:44.707Z,101408.95
2019-05-28T12:09:46.549Z,101394.27
2019-05-28T12:14:48.405Z,101375.58
2019-05-28T12:19:50.259Z,101351.74
2019-05-28T12:24:51.979Z,101309.32
2019-05-28T12:29:53.576Z,101285.77
2019-05-28T12:34:58.301Z,101263.41
2019-05-28T12:40:00.168Z,101258.76
2019-05-28T12:45:09.562Z,101246.36
2019-05-28T12:50:19.289Z,101252.44
2019-05-28T12:55:13.160Z,100997.45
2019-05-28T13:00:18.307Z,100698.45
2019-05-28T13:05:22.817Z,100593.30
2019-05-28T13:10:24.642Z,100600.95
2019-05-28T13:15:26.530Z,100629.37
2019-05-28T13:20:28.295Z,100628.59
2019-05-28T13:25:30.295Z,100621.86
2019-05-28T13:30:33.830Z,100570.59
2019-05-28T13:35:35.787Z,100571.00
2019-05-28T13:40:39.436Z,100640.30
2019-05-28T13:45:41.296Z,100662.24
2019-05-28T13:50:43.138Z,100667.74
2019-05-28T13:55:46.726Z,100689.91
2019-05-28T14:00:48.583Z,100697.50
2019-05-28T14:05:50.390Z,100687.67
2019-05-28T14:10:54.514Z,100703.09
2019-05-28T14:15:56.434Z,100705.02
2019-05-28T14:20:58.508Z,100719.41
2019-05-28T14:26:00.389Z,100709.13
2019-05-28T14:31:03.587Z,100697.63
2019-05-28T14:36:05.685Z,100759.37
2019-05-28T14:41:10.067Z,100765.42
2019-05-28T14:46:12.131Z,100806.30
2019-05-28T14:51:16.120Z,100840.38
2019-05-28T14:56:18.213Z,100869.47
2019-05-28T15:01:22.337Z,100845.02
2019-05-28T15:06:27.208Z,100885.62
2019-05-28T15:11:30.120Z,100926.06
2019-05-28T15:16:31.978Z,100921.65
2019-05-28T15:21:33.839Z,100947.41
2019-05-28T15:26:35.995Z,100942.80
2019-05-28T15:31:38.703Z,100987.08
2019-05-28T15:36:40.410Z,100977.62
2019-05-28T15:41:42.508Z,101001.91
2019-05-28T15:46:44.223Z,101027.45
2019-05-28T15:51:45.917Z,101038.03
2019-05-28T15:56:47.940Z,101005.16
2019-05-28T16:01:51.288Z,101028.05
2019-05-28T16:06:55.394Z,101030.47
2019-05-28T16:11:57.229Z,101067.36
2019-05-28T16:16:59.183Z,101093.45
2019-05-28T16:22:05.951Z,101102.48
2019-05-28T16:27:08.026Z,101114.29
2019-05-28T16:32:09.879Z,101120.20
2019-05-28T16:37:12.893Z,101158.47
2019-05-28T16:42:15.995Z,101146.58
2019-05-28T16:47:22.185Z,101127.39
2019-05-28T16:52:23.992Z,101152.81
2019-05-28T16:57:26.750Z,101142.45
2019-05-28T17:02:28.606Z,101165.16
2019-05-28T17:07:30.440Z,101192.53
2019-05-28T17:12:33.686Z,101213.84
2019-05-28T17:17:39.246Z,101217.91
2019-05-28T17:22:41.144Z,101205.75
2019-05-28T17:27:42.952Z,101227.70
2019-05-28T17:32:50.125Z,101259.12
2019-05-28T17:37:51.916Z,101282.00
2019-05-28T17:42:58.145Z,101269.36
2019-05-28T17:48:00.016Z,101264.68
2019-05-28T17:53:06.349Z,101239.37
2019-05-28T17:58:08.160Z,101228.36
2019-05-28T18:03:10.289Z,101268.74
2019-05-28T18:08:12.118Z,101279.36
2019-05-28T18:13:17.330Z,101301.16
2019-05-28T18:18:20.065Z,101326.56
2019-05-28T18:23:21.978Z,101306.66
2019-05-28T18:28:23.907Z,101274.69
2019-05-28T18:33:25.847Z,101306.81
2019-05-28T18:38:27.682Z,101314.50
2019-05-28T18:43:29.478Z,101290.13
2019-05-28T18:48:31.318Z,101282.56
2019-05-28T18:53:33.128Z,101307.14
2019-05-28T18:58:35.843Z,101300.99
2019-05-28T19:03:43.229Z,101250.27
2019-05-28T19:08:47.970Z,101261.22
2019-05-28T19:13:52.065Z,101259.12
2019-05-28T19:18:55.396Z,101289.94
2019-05-28T19:23:58.543Z,101283.43
2019-05-28T19:29:00.361Z,101264.42
2019-05-28T19:34:03.104Z,101263.17
2019-05-28T19:39:06.076Z,101263.81
2019-05-28T19:44:07.978Z,101243.52
2019-05-28T19:49:09.762Z,101246.11
2019-05-28T19:54:11.611Z,101249.05
2019-05-28T19:59:15.776Z,101244.92
2019-05-28T20:04:20.097Z,101248.13
2019-05-28T20:09:21.892Z,101236.66
2019-05-28T20:14:24.084Z,101261.92
2019-05-28T20:19:30.888Z,101248.27
2019-05-28T20:24:34.595Z,101225.77
2019-05-28T20:29:36.572Z,101216.92
2019-05-28T20:34:38.516Z,101186.82
2019-05-28T20:39:40.564Z,101174.45
2019-05-28T20:44:42.484Z,101160.91
2019-05-28T20:49:44.346Z,101161.23
2019-05-28T20:54:48.815Z,101173.84
2019-05-28T20:59:51.491Z,101161.78
2019-05-28T21:04:54.553Z,101143.89
2019-05-28T21:09:56.544Z,101131.66
2019-05-28T21:14:59.023Z,101145.87
2019-05-28T21:20:00.902Z,101152.43
2019-05-28T21:25:06.949Z,101154.72
2019-05-28T21:30:09.562Z,101154.48
2019-05-28T21:35:12.118Z,101165.85
2019-05-28T21:40:14.335Z,101168.95
2019-05-28T21:45:16.439Z,101191.71
2019-05-28T21:50:19.136Z,101200.66
2019-05-28T21:55:25.292Z,101226.69
2019-05-28T22:00:47.812Z,101233.87
2019-05-28T22:05:49.817Z,101245.62
2019-05-28T22:10:51.688Z,101273.60
2019-05-28T22:15:55.966Z,101254.70
2019-05-28T22:20:58.178Z,101250.28
2019-05-28T22:26:00.896Z,101277.47
2019-05-28T22:31:03.842Z,101282.85
2019-05-28T22:36:05.999Z,101286.83
2019-05-28T22:41:08.605Z,101303.49
2019-05-28T22:46:10.794Z,101282.17
2019-05-28T22:51:12.604Z,101300.23
2019-05-28T22:56:17.003Z,101288.22
2019-05-28T23:01:18.827Z,101319.28
2019-05-28T23:06:22.656Z,101325.00
2019-05-28T23:11:24.586Z,101319.02
2019-05-28T23:16:26.795Z,101297.32
2019-05-28T23:21:28.511Z,101324.20
2019-05-28T23:26:30.464Z,101330.66
2019-05-28T23:31:32.316Z,101341.49
2019-05-28T23:36:38.548Z,101357.61
2019-05-28T23:41:40.406Z,101401.12
2019-05-28T23:46:42.378Z,101433.00
2019-05-28T23:51:44.347Z,101488.34
2019-05-28T23:56:46.443Z,101522.47
